Current | Forecast
Updated: 12:00 PM JST on March 29, 2017
Observed at Miho AB, Japan
Temperature 59°F
Humidity 34%
Dew Point 30°F
Wind WSW at 13 mph
Pressure 30.21 in (Steady)
Conditions Scattered Clouds
Visibility 6.2 miles
UV 8 out of 16
Clouds (FEW) : 6000 ft
Scattered Clouds (SCT) : 24000 ft
Yesterday's Maximum 55°F
Yesterday's Minimum 39°F approx.
Yesterday's Heating Degree Days 18 approx.
Sunrise5:58 AM JST
Sunset6:26 PM JST
Moon Rise6:46 AM JST
Moon Set7:43 PM JST
Moon PhaseMoon Phase
New Moon
Raw METARMETAR RJOH 290300Z 25011KT 9999 FEW060 SCT240 15/M01 Q1023


Monday
. High: 71° F.
Tuesday
. High: 71° F.
Wednesday
. High: 66° F.
Thursday
. High: 69° F.
Friday
. High: 73° F.
Saturday
. High: 68° F.
Sunday
. High: 71° F.
Monday
. High: 69° F.

Units: English | Metric

Find the Weather for any City, State or Zipcode, or Country:

U.S. State List | Severe Weather | Tropical Storms | Ski Conditions
United States | Canada | Central America | South America | Asia | Europe | Australia | Africa | Islands

Weather Underground

© Copyright 2017
The Weather Company, LLC